Flight Track Log - Related Links

Times and Time Zones

All times are in EDT time to prevent confusion due to time zone crossing. See the N580HC flight status page for this flight to view local times or setup timezone preferences in your user account.

Time Position Orientation Groundspeed Altitude Reporting Facility
EDT Latitude Longitude Course Direction KTS MPH feet Rate Location/Type
Wed 03:26:37 PM 36.1886 -95.8850 231° Southwest 168 193 1,300  Level Kansas City Center
Wed 03:27:14 PM 36.1683 -95.9161 231° Southwest 215 247 3,200 3,438 Climbing Kansas City Center
Wed 03:28:06 PM 36.1708 -95.9789 273° West 235 270 6,400 4,000 Climbing Kansas City Center
Wed 03:28:14 PM 36.1708 -95.9958 270° West 242 278 7,200 3,581 Climbing Kansas City Center
Wed 03:29:08 PM 36.1756 -96.0542 276° West 224 258 10,100 3,207 Climbing Kansas City Center
Wed 03:30:10 PM 36.1783 -96.1233 273° West 209 241 13,400 2,903 Climbing Kansas City Center
Wed 03:31:12 PM 36.1808 -96.1950 272° West 208 239 16,100 2,565 Climbing Kansas City Center
Wed 03:32:14 PM 36.1850 -96.2733 274° West 221 254 18,700 2,806 Climbing Kansas City Center
Wed 03:33:16 PM 36.1842 -96.3717 269° West 236 272 21,900 1,610 Climbing Kansas City Center
Wed 03:34:17 PM 36.1331 -96.4425 228° Southwest 270 311 22,000 49 Climbing Kansas City Center
Wed 03:35:19 PM 36.0747 -96.5308 231° Southwest 319 367 22,000  Level Kansas City Center
Wed 03:36:21 PM 36.0072 -96.6328 231° Southwest 358 412 22,000  Level Kansas City Center
Wed 03:37:23 PM 35.9433 -96.7297 231° Southwest 364 419 22,000  Level Kansas City Center
Wed 03:38:25 PM 35.8808 -96.8253 231° Southwest 361 415 22,000  Level Kansas City Center
Wed 03:39:27 PM 35.8183 -96.9194 231° Southwest 357 411 22,000  Level Kansas City Center
Wed 03:40:29 PM 35.7558 -97.0133 231° Southwest 356 410 22,000  Level Kansas City Center
Wed 03:41:30 PM 35.6825 -97.1258 231° Southwest 353 406 22,000  Level Kansas City Center
Wed 03:42:32 PM 35.6208 -97.2175 230° Southwest 351 404 22,000  Level Kansas City Center
Wed 03:43:08 PM 35.5833 -97.2758 232° Southwest 353 406 22,000  Level Fort Worth Center
Wed 03:44:08 PM 35.5208 -97.3703 231° Southwest 375 432 22,000  Level Fort Worth Center
Wed 03:45:08 PM 35.4647 -97.4569 232° Southwest 370 426 22,000  Level Fort Worth Center
Wed 03:46:08 PM 35.4000 -97.5511 230° Southwest 370 426 22,000  Level Fort Worth Center
Wed 03:47:08 PM 35.3164 -97.6094 210° Southwest 349 402 22,000  Level Fort Worth Center
Wed 03:48:08 PM 35.2122 -97.5964 174° South 342 394 22,000  Level Fort Worth Center
Wed 03:49:08 PM 35.1058 -97.5786 172° South 363 418 22,000  Level Fort Worth Center
Wed 03:50:08 PM 35.0014 -97.5606 172° South 375 432 22,000  Level Fort Worth Center
Wed 03:51:08 PM 34.8972 -97.5478 174° South 381 438 22,000  Level Fort Worth Center
Wed 03:52:08 PM 34.7950 -97.5325 173° South 381 438 22,000  Level Fort Worth Center
Wed 03:53:08 PM 34.6928 -97.5169 173° South 381 438 22,000  Level Fort Worth Center
Wed 03:54:08 PM 34.5886 -97.5044 174° South 381 438 22,000  Level Fort Worth Center
Wed 03:55:08 PM 34.4864 -97.4892 173° South 381 438 22,000  Level Fort Worth Center
Wed 03:56:08 PM 34.3819 -97.4789 175° South 381 438 22,000 -450 Level Fort Worth Center
Wed 03:57:08 PM 34.2839 -97.4764 179° South 371 427 21,100 -1,200 Descending Fort Worth Center
Wed 03:58:08 PM 34.1900 -97.4789 181° South 358 412 19,600 -1,650 Descending Fort Worth Center
Wed 03:59:08 PM 34.0856 -97.4711 176° South 346 398 17,800 -1,550 Descending Fort Worth Center
Wed 04:00:08 PM 34.0000 -97.4711 180° South 332 382 16,500 -1,350 Descending Fort Worth Center
Wed 04:01:08 PM 33.9103 -97.4686 179° South 321 369 15,100 -1,350 Descending Fort Worth Center
Wed 04:02:08 PM 33.8206 -97.4708 181° South 321 369 13,800 -1,300 Descending Fort Worth Center
Wed 04:03:08 PM 33.7350 -97.4708 180° South 321 369 12,500 -1,300 Descending Fort Worth Center
Wed 04:04:08 PM 33.6536 -97.4683 179° South 321 369 11,200 -1,240 Descending Fort Worth Center
Wed 04:05:09 PM 33.5744 -97.4683 180° South 300 345 10,000 -1,250 Descending Fort Worth Center
Wed 04:06:08 PM 33.5056 -97.4683 180° South 274 315 8,700 -1,462 Descending Fort Worth Center
Wed 04:07:08 PM 33.4325 -97.4383 161° South 267 307 7,100 -1,736 Descending Fort Worth Center
Wed 04:08:09 PM 33.4200 -97.3586 101° East 231 266 5,200 -1,900 Descending Fort Worth Center
Wed 04:09:08 PM 33.4072 -97.2667 99° East 248 285 3,300 -1,109 Descending Fort Worth Center
Wed 04:10:08 PM 33.4008 -97.1944 96° East 243 280 3,000 -149 Descending Fort Worth Center
Wed 04:11:09 PM 33.3989 -97.1397 92° East 195 224 3,000 -150 Level Fort Worth Center
Wed 04:12:08 PM 33.3717 -97.1672 220° Southwest 89 102 2,700 -184 Descending Fort Worth Center
Wed 04:12:47 PM 33.3500 -97.1833 212° Southwest 145 167 2,700  Level Dallas / Fort Worth TRACON
Wed 04:13:47 PM 33.3167 -97.2000 203° Southwest 115 132 2,700 -300 Level Dallas / Fort Worth TRACON
Wed 04:14:47 PM 33.2833 -97.2000 180° South 115 132 2,100 -600 Descending Dallas / Fort Worth TRACON
Wed 04:15:47 PM 33.2500 -97.2000 180° South 115 132 1,500 567 Descending Dallas / Fort Worth TRACON
Wed 04:18:08 PM 33.2403 -97.1925 147° Southeast 48 55 4,000 478 Climbing Fort Worth Center
Wed 04:19:08 PM 33.2297 -97.1303 101° East 177 204 3,100 -900 Descending Fort Worth Center

Login

Don't have an account? Register now (free) for customized features, flight alerts, and more!